Time;durP1;ratioP1;P1;durP2;ratioP2;P2;SDS_P1;SDS_P2;PMS_P1;PMS_P2;Temp;Humidity;BMP_temperature;BMP_pressure;BME280_temperature;BME280_humidity;BME280_pressure;Samples;Min_cycle;Max_cycle;Signal;HPM_P1;HPM_P2
2021/03/11 00:01:18;;;;;;;24.38;13.95;;;2.50;99.90;;;;;;4860216;29;20093;-87
2021/03/11 00:04:31;;;;;;;25.85;13.80;;;2.40;99.90;;;;;;4847906;29;20056;-86
2021/03/11 00:17:55;;;;;;;21.50;12.75;;;2.70;99.90;;;;;;4858965;29;20056;-86
2021/03/11 00:20:30;;;;;;;24.73;14.43;;;2.80;99.90;;;;;;4844616;29;20049;-86
2021/03/11 00:23:22;;;;;;;21.23;13.60;;;3.00;99.90;;;;;;4833228;29;20383;-86
2021/03/11 00:29:39;;;;;;;19.60;12.30;;;3.70;99.90;;;;;;4934369;29;20157;-86
2021/03/11 00:32:39;;;;;;;20.05;11.60;;;3.80;99.90;;;;;;4970281;28;20108;-86
2021/03/11 00:35:31;;;;;;;20.90;12.50;;;4.00;99.90;;;;;;5008856;28;20046;-86
2021/03/11 00:39:30;;;;;;;17.25;10.68;;;4.20;99.90;;;;;;4917546;29;20044;-85
2021/03/11 00:43:07;;;;;;;;;;;;;;;;;;;;;
2021/03/11 00:46:29;;;;;;;18.88;12.82;;;4.30;99.90;;;;;;4846103;29;20050;-86
2021/03/11 00:49:16;;;;;;;19.13;12.50;;;4.40;99.90;;;;;;4864530;29;20085;-85
2021/03/11 00:52:01;;;;;;;18.95;11.65;;;4.30;99.90;;;;;;4864572;29;20060;-86
2021/03/11 00:55:57;;;;;;;19.05;12.25;;;4.40;99.90;;;;;;4841949;29;20050;-86
2021/03/11 00:59:38;;;;;;;20.23;12.05;;;4.40;99.90;;;;;;4862836;29;20061;-86
2021/03/11 01:13:13;;;;;;;20.73;12.18;;;4.20;99.90;;;;;;4920195;29;20135;-86
2021/03/11 01:15:56;;;;;;;17.35;11.43;;;4.10;99.90;;;;;;4920034;29;20052;-86
2021/03/11 01:18:29;;;;;;;19.95;12.10;;;4.10;99.90;;;;;;4919728;29;20048;-86
2021/03/11 01:21:09;;;;;;;19.83;11.13;;;4.20;99.90;;;;;;4919398;29;20051;-86
2021/03/11 01:24:15;;;;;;;16.80;11.15;;;4.30;99.90;;;;;;4972746;28;20081;-86
2021/03/11 01:26:51;;;;;;;18.17;11.23;;;4.30;99.90;;;;;;4983257;28;20137;-85
2021/03/11 01:29:27;;;;;;;18.48;12.05;;;4.30;99.90;;;;;;4981498;28;20113;-85
2021/03/11 01:31:58;;;;;;;22.90;12.80;;;4.40;99.90;;;;;;4981309;28;20069;-86
2021/03/11 01:35:08;;;;;;;23.85;12.23;;;4.60;99.90;;;;;;5010939;28;20492;-86
2021/03/11 01:38:39;;;;;;;16.98;11.20;;;4.60;99.90;;;;;;4985004;28;20047;-86
2021/03/11 01:41:34;;;;;;;24.17;11.27;;;4.70;99.90;;;;;;4974396;28;20046;-85
2021/03/11 01:48:36;;;;;;;;;;;;;;;;;;;;;
2021/03/11 01:52:14;;;;;;;20.52;12.32;;;4.60;99.90;;;;;;4994993;28;20054;-86
2021/03/11 01:55:16;;;;;;;21.80;12.13;;;4.50;99.90;;;;;;4985011;28;20077;-86
2021/03/11 01:58:35;;;;;;;31.38;12.07;;;4.60;99.90;;;;;;4978297;28;20134;-86
2021/03/11 02:01:22;;;;;;;20.98;12.65;;;4.60;99.90;;;;;;4982980;28;20459;-86
2021/03/11 02:04:12;;;;;;;18.08;11.77;;;4.90;99.90;;;;;;4985467;28;20499;-86
2021/03/11 02:06:39;;;;;;;20.67;12.82;;;5.00;99.90;;;;;;4999765;28;20058;-86
2021/03/11 02:09:05;;;;;;;21.17;13.18;;;5.20;99.90;;;;;;4999181;28;20085;-86
2021/03/11 02:11:57;;;;;;;26.27;12.45;;;5.50;99.90;;;;;;4981500;28;20104;-86
2021/03/11 02:15:05;;;;;;;22.08;12.65;;;5.60;99.90;;;;;;4981572;28;20089;-85
2021/03/11 02:17:40;;;;;;;20.80;11.38;;;5.70;99.90;;;;;;4980656;28;20051;-84
2021/03/11 02:20:29;;;;;;;19.67;12.52;;;5.80;99.90;;;;;;4997955;28;20130;-86
2021/03/11 02:23:25;;;;;;;20.58;12.20;;;5.90;99.90;;;;;;4980803;28;20051;-86
2021/03/11 02:26:04;;;;;;;18.98;12.55;;;5.90;99.90;;;;;;4980971;28;20046;-84
2021/03/11 02:29:03;;;;;;;18.58;11.15;;;5.90;99.90;;;;;;5013571;28;20082;-86
2021/03/11 02:31:33;;;;;;;20.10;12.63;;;5.90;99.90;;;;;;4988108;28;20085;-85
2021/03/11 02:34:06;;;;;;;19.55;12.52;;;5.80;99.90;;;;;;4962296;28;20105;-86
2021/03/11 02:36:37;;;;;;;17.75;11.93;;;5.80;99.90;;;;;;4962054;28;20417;-85
2021/03/11 02:39:07;;;;;;;18.95;11.68;;;5.70;99.90;;;;;;4978899;28;20047;-86
2021/03/11 02:41:35;;;;;;;17.33;11.20;;;5.70;99.90;;;;;;4961606;28;20053;-86
2021/03/11 02:44:06;;;;;;;19.08;12.23;;;5.70;99.90;;;;;;4961740;28;20051;-85
2021/03/11 02:46:33;;;;;;;21.60;11.77;;;5.70;99.90;;;;;;4962174;28;20058;-85
2021/03/11 02:49:01;;;;;;;19.13;12.15;;;5.70;99.90;;;;;;4978913;28;20058;-86
2021/03/11 02:51:28;;;;;;;19.58;11.65;;;5.60;99.90;;;;;;4962858;28;20057;-86
2021/03/11 02:53:58;;;;;;;19.08;11.50;;;5.60;99.90;;;;;;4962826;28;20150;-86
2021/03/11 02:56:25;;;;;;;20.77;12.75;;;5.60;99.90;;;;;;4962813;28;20477;-86
2021/03/11 02:58:53;;;;;;;18.30;12.18;;;5.60;99.90;;;;;;4962835;28;20109;-86
2021/03/11 03:01:21;;;;;;;19.92;12.32;;;5.50;99.90;;;;;;4962476;28;20127;-86
2021/03/11 03:03:50;;;;;;;17.13;12.10;;;5.50;99.90;;;;;;4962394;28;20050;-86
2021/03/11 03:06:17;;;;;;;18.38;11.30;;;5.50;99.90;;;;;;4962993;28;20078;-87
2021/03/11 03:08:45;;;;;;;17.63;11.48;;;5.50;99.90;;;;;;4962094;28;20081;-86
2021/03/11 03:11:14;;;;;;;21.17;12.35;;;5.50;99.90;;;;;;4961305;28;20465;-85
2021/03/11 03:13:42;;;;;;;18.95;11.80;;;5.50;99.90;;;;;;4981730;28;20074;-86
2021/03/11 03:16:09;;;;;;;19.20;12.10;;;5.50;99.90;;;;;;4965798;28;20057;-85
2021/03/11 03:18:36;;;;;;;20.80;12.18;;;5.40;99.90;;;;;;4962320;28;20046;-85
2021/03/11 03:21:08;;;;;;;17.13;11.77;;;5.40;99.90;;;;;;4961954;28;20051;-86
2021/03/11 03:23:36;;;;;;;18.20;11.60;;;5.30;99.90;;;;;;4962975;28;20046;-86
2021/03/11 03:26:03;;;;;;;21.02;11.65;;;5.20;99.90;;;;;;4962072;28;20047;-84
2021/03/11 03:28:30;;;;;;;16.50;10.38;;;5.20;99.90;;;;;;4979718;28;20070;-85
2021/03/11 03:30:56;;;;;;;15.45;10.45;;;5.20;99.90;;;;;;4967342;28;20568;-83
2021/03/11 03:33:23;;;;;;;17.52;11.05;;;5.20;99.90;;;;;;4981671;28;20050;-83
2021/03/11 03:35:49;;;;;;;17.92;10.57;;;5.30;99.90;;;;;;4982490;28;20050;-84
2021/03/11 03:38:16;;;;;;;15.55;10.05;;;5.40;99.90;;;;;;4980672;28;20053;-83
2021/03/11 03:40:43;;;;;;;18.30;10.43;;;5.40;99.90;;;;;;5000539;28;20465;-84
2021/03/11 03:43:35;;;;;;;16.10;10.02;;;5.40;99.90;;;;;;4982353;28;20056;-84
2021/03/11 03:46:11;;;;;;;14.95;9.52;;;5.50;99.90;;;;;;4979055;28;20467;-85
2021/03/11 03:48:45;;;;;;;13.35;9.05;;;5.60;99.90;;;;;;4983259;28;20405;-84
2021/03/11 03:51:15;;;;;;;15.90;8.98;;;5.70;99.90;;;;;;4983085;28;20109;-85
2021/03/11 03:53:48;;;;;;;12.23;8.48;;;5.80;99.90;;;;;;4982588;28;20058;-86
2021/03/11 03:56:30;;;;;;;14.43;9.32;;;5.90;99.90;;;;;;4981836;28;20057;-85
2021/03/11 03:58:59;;;;;;;15.73;9.70;;;6.00;99.90;;;;;;4981515;28;20078;-85
2021/03/11 04:01:31;;;;;;;14.80;9.68;;;6.10;99.90;;;;;;4981634;28;20066;-85
2021/03/11 04:04:04;;;;;;;14.70;8.90;;;6.20;99.90;;;;;;4983832;28;20061;-84
2021/03/11 04:06:32;;;;;;;15.30;9.10;;;6.30;99.90;;;;;;4986087;28;20489;-83
2021/03/11 04:09:05;;;;;;;11.05;8.27;;;6.30;99.90;;;;;;5002586;28;20137;-84
2021/03/11 04:11:32;;;;;;;12.02;8.80;;;6.30;99.90;;;;;;4983826;28;20050;-85
2021/03/11 04:14:01;;;;;;;17.13;8.60;;;6.40;99.90;;;;;;4982333;28;20054;-84
2021/03/11 04:16:28;;;;;;;16.98;9.57;;;6.40;99.90;;;;;;4984091;28;20115;-85
2021/03/11 04:18:59;;;;;;;12.15;8.75;;;6.50;99.90;;;;;;4984520;28;20526;-85
2021/03/11 04:21:28;;;;;;;14.75;9.07;;;6.50;99.90;;;;;;4984600;28;20148;-84
2021/03/11 04:23:58;;;;;;;13.23;8.95;;;6.50;99.90;;;;;;4985576;28;20404;-85
2021/03/11 04:26:27;;;;;;;15.40;8.80;;;6.50;99.90;;;;;;4985697;28;20051;-84
2021/03/11 04:28:54;;;;;;;13.32;8.70;;;6.60;99.90;;;;;;4984863;28;20078;-83
2021/03/11 04:31:20;;;;;;;14.05;9.38;;;6.60;99.90;;;;;;4981441;28;20476;-83
2021/03/11 04:33:47;;;;;;;11.73;8.35;;;6.70;99.90;;;;;;4981936;28;20050;-84
2021/03/11 04:36:15;;;;;;;14.90;9.50;;;6.70;99.90;;;;;;4982585;28;20078;-83
2021/03/11 04:38:42;;;;;;;13.55;9.00;;;6.70;99.90;;;;;;4982126;28;20137;-83
2021/03/11 04:41:09;;;;;;;12.57;8.57;;;6.70;99.90;;;;;;4982199;28;20097;-85
2021/03/11 04:43:38;;;;;;;14.05;9.57;;;6.70;99.90;;;;;;4982241;28;20081;-84
2021/03/11 04:46:05;;;;;;;15.38;8.98;;;6.70;99.90;;;;;;4981793;28;20480;-84
2021/03/11 04:48:33;;;;;;;14.45;8.88;;;6.70;99.90;;;;;;4983139;28;20062;-84
2021/03/11 04:51:04;;;;;;;14.77;9.55;;;6.60;99.90;;;;;;4981100;28;20058;-84
2021/03/11 04:53:32;;;;;;;13.10;9.23;;;6.60;99.90;;;;;;4980746;28;20077;-84
2021/03/11 04:56:00;;;;;;;14.35;9.55;;;6.60;99.90;;;;;;4982082;28;20056;-85
2021/03/11 04:58:29;;;;;;;16.65;10.05;;;6.60;99.90;;;;;;4998989;28;20086;-84
2021/03/11 05:00:57;;;;;;;14.15;9.27;;;6.50;99.90;;;;;;4981592;28;20046;-84
2021/03/11 05:03:23;;;;;;;12.77;9.57;;;6.50;99.90;;;;;;4999384;28;20081;-84
2021/03/11 05:05:50;;;;;;;15.05;9.45;;;6.40;99.90;;;;;;4982629;28;20046;-85
2021/03/11 05:08:17;;;;;;;14.82;10.13;;;6.40;99.90;;;;;;4982518;28;20101;-83
2021/03/11 05:10:45;;;;;;;14.05;9.68;;;6.40;99.90;;;;;;4981967;28;20057;-83
2021/03/11 05:13:11;;;;;;;16.05;9.95;;;6.30;99.90;;;;;;4982084;28;20058;-83
2021/03/11 05:15:37;;;;;;;15.20;9.85;;;6.30;99.90;;;;;;4981697;28;20085;-83
2021/03/11 05:18:04;;;;;;;14.40;9.55;;;6.20;99.90;;;;;;4983524;28;20057;-84
2021/03/11 05:20:30;;;;;;;22.98;10.68;;;6.20;99.90;;;;;;4982164;28;20563;-84
2021/03/11 05:22:57;;;;;;;15.05;9.85;;;6.20;99.90;;;;;;4982808;28;20133;-84
2021/03/11 05:25:23;;;;;;;14.95;9.95;;;6.10;99.90;;;;;;4982327;28;20053;-82
2021/03/11 05:27:49;;;;;;;14.38;10.07;;;6.10;99.90;;;;;;5001699;28;20173;-84
2021/03/11 05:30:16;;;;;;;14.98;10.55;;;6.00;99.90;;;;;;4984271;28;20500;-84
2021/03/11 05:32:43;;;;;;;17.88;10.82;;;6.00;99.90;;;;;;5001128;28;20133;-83
2021/03/11 05:35:10;;;;;;;22.33;10.50;;;5.90;99.90;;;;;;4984220;28;20066;-83
2021/03/11 05:37:40;;;;;;;14.82;10.02;;;5.90;99.90;;;;;;4986148;28;20444;-84
2021/03/11 05:40:09;;;;;;;16.98;10.63;;;5.80;99.90;;;;;;4985533;28;20077;-84
2021/03/11 05:42:37;;;;;;;16.70;10.32;;;5.70;99.90;;;;;;4984669;28;20057;-85
2021/03/11 05:45:06;;;;;;;16.15;9.70;;;5.80;99.90;;;;;;4988054;28;20046;-83
2021/03/11 05:47:35;;;;;;;12.13;9.02;;;5.80;99.90;;;;;;4981266;28;20054;-84
2021/03/11 05:50:04;;;;;;;13.32;9.27;;;5.80;99.90;;;;;;4981925;28;20140;-83
2021/03/11 05:52:30;;;;;;;16.52;9.65;;;5.80;99.90;;;;;;4982214;28;20419;-84
2021/03/11 05:54:58;;;;;;;14.13;9.57;;;5.80;99.90;;;;;;4999945;28;20073;-84
2021/03/11 05:57:42;;;;;;;15.82;10.18;;;5.80;99.90;;;;;;4999245;28;20071;-84
2021/03/11 06:00:13;;;;;;;15.05;10.68;;;5.80;99.90;;;;;;4981349;28;20042;-83
2021/03/11 06:02:44;;;;;;;11.93;9.75;;;5.70;99.90;;;;;;4981620;28;20046;-85
2021/03/11 06:05:19;;;;;;;13.90;9.68;;;5.70;99.90;;;;;;4981415;28;20059;-84
2021/03/11 06:07:47;;;;;;;13.93;10.18;;;5.70;99.90;;;;;;4981695;28;20085;-84
2021/03/11 06:10:16;;;;;;;17.00;11.23;;;5.70;99.90;;;;;;4981067;28;20459;-85
2021/03/11 06:12:46;;;;;;;15.48;10.90;;;5.70;99.90;;;;;;4980243;28;20050;-85
2021/03/11 06:15:27;;;;;;;15.48;11.00;;;5.70;99.90;;;;;;4998959;28;20050;-84
2021/03/11 06:17:55;;;;;;;16.35;10.40;;;5.70;99.90;;;;;;4981142;28;20046;-84
2021/03/11 06:20:24;;;;;;;15.35;10.80;;;5.80;99.90;;;;;;4979728;28;20070;-85
2021/03/11 06:22:52;;;;;;;16.73;10.85;;;5.90;99.90;;;;;;4981644;28;20496;-85
2021/03/11 06:25:20;;;;;;;14.40;10.38;;;5.90;99.90;;;;;;4982225;28;20109;-84
2021/03/11 06:27:58;;;;;;;15.55;11.38;;;5.90;99.90;;;;;;5001178;28;20050;-84
2021/03/11 06:30:41;;;;;;;16.85;11.02;;;5.90;99.90;;;;;;4984839;28;20057;-84
2021/03/11 06:33:08;;;;;;;14.20;10.30;;;5.90;99.90;;;;;;4999361;28;20056;-85
2021/03/11 06:35:36;;;;;;;17.17;11.02;;;6.00;99.90;;;;;;5013110;28;20351;-85
2021/03/11 06:38:04;;;;;;;18.38;11.05;;;6.00;99.90;;;;;;4980638;28;20046;-84
2021/03/11 06:40:31;;;;;;;16.20;10.98;;;6.10;99.90;;;;;;4981412;28;20046;-84
2021/03/11 06:43:11;;;;;;;16.58;11.57;;;6.00;99.90;;;;;;4980594;28;20046;-84
2021/03/11 06:45:39;;;;;;;14.05;9.82;;;6.00;99.90;;;;;;4997700;28;20042;-83
2021/03/11 06:48:26;;;;;;;16.05;10.63;;;6.10;99.90;;;;;;5016712;28;20049;-83
2021/03/11 06:50:55;;;;;;;16.13;10.20;;;6.20;99.90;;;;;;4998863;28;20100;-85
2021/03/11 06:53:22;;;;;;;25.50;15.80;;;6.30;99.90;;;;;;4997875;28;20053;-84
2021/03/11 06:55:49;;;;;;;16.45;10.05;;;6.30;99.90;;;;;;4998462;28;20496;-84
2021/03/11 06:58:26;;;;;;;14.10;9.50;;;6.30;99.90;;;;;;5015904;28;20104;-83
2021/03/11 07:01:06;;;;;;;14.30;10.23;;;6.40;99.90;;;;;;5001421;28;20049;-84
2021/03/11 07:03:40;;;;;;;13.68;9.35;;;6.50;99.90;;;;;;5004045;28;20518;-85
2021/03/11 07:06:07;;;;;;;15.63;9.07;;;6.50;99.90;;;;;;5004957;28;20100;-85
2021/03/11 07:08:49;;;;;;;15.85;9.52;;;6.60;99.90;;;;;;5001833;28;20076;-85
2021/03/11 07:11:16;;;;;;;14.15;8.85;;;6.60;99.90;;;;;;5004227;28;20057;-85
2021/03/11 07:13:43;;;;;;;12.45;9.13;;;6.70;99.90;;;;;;5022701;28;20069;-86
2021/03/11 07:16:16;;;;;;;12.32;9.32;;;6.80;99.90;;;;;;5021465;28;20046;-85
2021/03/11 07:18:43;;;;;;;17.23;10.45;;;6.80;99.90;;;;;;5005532;28;20142;-85
2021/03/11 07:21:10;;;;;;;15.75;9.63;;;6.80;99.90;;;;;;5006150;28;20503;-85
2021/03/11 07:23:47;;;;;;;21.17;9.85;;;6.80;99.90;;;;;;5005592;28;20048;-86
2021/03/11 07:26:13;;;;;;;13.98;9.07;;;7.00;99.90;;;;;;5023610;28;20042;-85
2021/03/11 07:28:44;;;;;;;12.57;8.98;;;7.00;99.90;;;;;;5005123;28;20407;-84
2021/03/11 07:31:10;;;;;;;27.83;12.25;;;7.00;99.90;;;;;;5006472;28;20551;-85
2021/03/11 07:33:38;;;;;;;11.80;8.75;;;7.10;99.90;;;;;;5007063;28;20076;-86
2021/03/11 07:36:09;;;;;;;14.23;8.80;;;7.20;99.90;;;;;;5005354;28;20093;-84
2021/03/11 07:38:37;;;;;;;10.45;8.45;;;7.30;99.90;;;;;;5000043;28;20058;-84
2021/03/11 07:41:06;;;;;;;16.92;9.20;;;7.40;99.90;;;;;;5000550;28;20045;-85
2021/03/11 07:43:32;;;;;;;11.63;8.23;;;7.40;99.90;;;;;;4999453;28;20530;-84
2021/03/11 07:46:05;;;;;;;12.80;7.85;;;7.50;99.90;;;;;;4999821;28;20054;-84
2021/03/11 07:48:32;;;;;;;13.20;8.70;;;7.50;99.90;;;;;;5003276;28;20053;-85
2021/03/11 07:51:00;;;;;;;11.82;8.25;;;7.50;99.90;;;;;;5002275;28;20053;-86
2021/03/11 07:53:26;;;;;;;10.32;7.90;;;7.50;99.90;;;;;;5004589;28;20077;-84
2021/03/11 07:55:54;;;;;;;14.55;8.30;;;7.60;99.90;;;;;;5003466;28;20058;-86
2021/03/11 07:58:40;;;;;;;8.20;6.68;;;7.60;99.90;;;;;;5022067;28;20046;-85
2021/03/11 08:01:08;;;;;;;16.08;7.57;;;7.60;99.90;;;;;;5003607;28;20481;-85
2021/03/11 08:03:37;;;;;;;10.00;7.35;;;7.60;99.90;;;;;;5003515;28;20042;-84
2021/03/11 08:06:22;;;;;;;10.65;7.35;;;7.60;99.90;;;;;;5002622;28;20414;-85
2021/03/11 08:08:48;;;;;;;12.27;7.93;;;7.60;99.90;;;;;;5003461;28;20053;-84
2021/03/11 08:11:31;;;;;;;9.88;7.80;;;7.60;99.90;;;;;;5021569;28;20145;-84
2021/03/11 08:14:22;;;;;;;12.60;7.70;;;7.60;99.90;;;;;;5005230;28;20053;-84
2021/03/11 08:16:49;;;;;;;11.68;8.60;;;7.50;99.90;;;;;;5007429;28;20471;-84
2021/03/11 08:19:36;;;;;;;11.57;7.80;;;7.50;99.90;;;;;;5008907;28;20042;-85
2021/03/11 08:22:03;;;;;;;9.88;8.45;;;7.50;99.90;;;;;;5011663;28;20050;-86
2021/03/11 08:24:46;;;;;;;12.77;8.07;;;7.60;99.90;;;;;;5006902;28;20100;-85
2021/03/11 08:27:32;;;;;;;12.00;8.20;;;7.60;99.90;;;;;;4999230;28;20104;-86
2021/03/11 08:30:00;;;;;;;13.48;8.18;;;7.70;99.90;;;;;;5024929;28;20499;-85
2021/03/11 08:32:46;;;;;;;9.73;7.82;;;7.70;99.90;;;;;;5008550;28;20054;-86
2021/03/11 08:35:28;;;;;;;14.13;8.13;;;7.80;99.90;;;;;;5007719;28;20046;-85
2021/03/11 08:37:56;;;;;;;10.50;7.93;;;8.00;99.90;;;;;;5007614;28;20088;-86
2021/03/11 08:40:44;;;;;;;16.88;7.72;;;8.00;99.90;;;;;;5008354;28;20042;-86
2021/03/11 08:43:10;;;;;;;13.30;7.93;;;8.10;99.90;;;;;;5006363;28;20050;-84
2021/03/11 08:45:37;;;;;;;15.73;8.43;;;8.10;99.90;;;;;;5009479;28;20046;-85
2021/03/11 08:49:06;;;;;;;10.45;8.30;;;8.10;99.90;;;;;;5010230;28;20034;-86
2021/03/11 08:51:32;;;;;;;22.63;7.50;;;8.20;99.90;;;;;;4940855;29;20100;-84
2021/03/11 08:54:09;;;;;;;32.92;9.35;;;8.20;99.90;;;;;;4992295;28;20054;-85
2021/03/11 08:56:40;;;;;;;9.48;7.82;;;8.20;99.90;;;;;;5004083;28;20069;-84
2021/03/11 08:59:09;;;;;;;24.00;9.57;;;8.30;99.90;;;;;;5003116;28;20073;-85
2021/03/11 09:01:38;;;;;;;14.93;8.32;;;8.30;99.90;;;;;;5004235;28;20046;-85
2021/03/11 09:04:31;;;;;;;8.88;7.32;;;8.40;99.90;;;;;;5005886;28;20561;-85
2021/03/11 09:07:06;;;;;;;14.73;8.30;;;8.30;99.90;;;;;;5008886;28;20050;-85
2021/03/11 09:09:49;;;;;;;14.57;8.27;;;8.30;99.90;;;;;;5011170;28;20054;-84
2021/03/11 09:12:21;;;;;;;14.82;8.70;;;8.30;99.90;;;;;;5010892;28;20081;-85
2021/03/11 09:14:50;;;;;;;12.82;8.75;;;8.20;99.90;;;;;;5012048;28;20070;-86
2021/03/11 09:17:21;;;;;;;11.95;8.13;;;8.10;99.90;;;;;;5011993;28;20053;-84
2021/03/11 09:20:00;;;;;;;9.90;7.60;;;8.10;99.90;;;;;;5011548;28;20080;-85
2021/03/11 09:22:40;;;;;;;13.40;8.35;;;8.10;99.90;;;;;;5009765;28;20053;-85
2021/03/11 09:25:10;;;;;;;12.35;7.60;;;8.10;99.90;;;;;;5028213;28;20054;-85
2021/03/11 09:27:52;;;;;;;13.60;8.43;;;8.20;99.90;;;;;;5009200;28;20150;-85
2021/03/11 09:30:36;;;;;;;11.18;7.28;;;8.50;99.90;;;;;;5003427;28;20054;-84
2021/03/11 09:33:20;;;;;;;12.13;7.95;;;8.50;99.90;;;;;;5002139;28;20080;-84
2021/03/11 09:35:48;;;;;;;10.65;7.72;;;8.60;99.90;;;;;;5002107;28;20054;-84
2021/03/11 09:38:23;;;;;;;11.57;7.78;;;8.50;99.90;;;;;;5001562;28;20104;-84
2021/03/11 09:40:54;;;;;;;12.50;7.82;;;8.60;99.90;;;;;;5005676;28;20491;-85
2021/03/11 09:43:27;;;;;;;10.57;7.05;;;8.70;99.90;;;;;;5004417;28;20045;-85
2021/03/11 09:46:02;;;;;;;8.38;6.60;;;8.80;99.90;;;;;;5003503;28;20054;-84
2021/03/11 09:48:53;;;;;;;11.38;7.43;;;9.00;99.90;;;;;;5002714;28;20119;-82
2021/03/11 09:51:22;;;;;;;10.40;7.82;;;9.00;99.90;;;;;;5003830;28;20058;-84
2021/03/11 09:53:51;;;;;;;9.68;7.72;;;9.10;99.90;;;;;;5003162;28;20081;-84
2021/03/11 09:56:23;;;;;;;9.57;7.07;;;9.30;99.90;;;;;;5003512;28;20461;-85
2021/03/11 09:58:53;;;;;;;12.98;7.30;;;9.40;99.90;;;;;;5003601;28;20566;-84
2021/03/11 10:01:34;;;;;;;8.63;6.72;;;9.50;99.90;;;;;;5004209;28;20053;-84
2021/03/11 10:04:28;;;;;;;10.82;8.40;;;9.40;99.90;;;;;;5004406;28;20061;-85
2021/03/11 10:07:05;;;;;;;13.57;8.20;;;9.20;99.90;;;;;;5004683;28;20045;-85
2021/03/11 10:09:42;;;;;;;10.43;6.90;;;9.40;99.90;;;;;;5004264;28;20104;-84
2021/03/11 10:12:09;;;;;;;9.85;6.97;;;9.30;99.90;;;;;;5007530;28;20057;-85
2021/03/11 10:14:37;;;;;;;7.65;6.57;;;8.80;99.90;;;;;;5009929;28;20050;-86
2021/03/11 10:17:06;;;;;;;7.78;6.47;;;8.70;99.90;;;;;;5007682;28;20049;-85
2021/03/11 10:19:36;;;;;;;10.63;6.60;;;8.70;99.90;;;;;;5006983;28;20068;-85
2021/03/11 10:22:17;;;;;;;8.82;6.88;;;8.80;99.90;;;;;;5006206;28;20050;-85
2021/03/11 10:24:51;;;;;;;8.75;6.28;;;9.50;99.90;;;;;;5023464;28;20090;-85
2021/03/11 10:27:30;;;;;;;6.28;5.15;;;9.90;99.90;;;;;;5005441;28;20507;-84
2021/03/11 10:30:06;;;;;;;6.57;5.40;;;10.00;99.90;;;;;;5005250;28;20694;-86
2021/03/11 10:32:34;;;;;;;6.43;5.47;;;10.20;99.90;;;;;;4986588;28;20061;-85
2021/03/11 10:35:01;;;;;;;6.32;5.72;;;10.10;99.90;;;;;;4984519;28;20141;-86
2021/03/11 10:37:29;;;;;;;6.13;5.53;;;9.90;99.90;;;;;;4985683;28;20162;-84
2021/03/11 10:40:05;;;;;;;6.00;5.35;;;9.60;99.90;;;;;;4985245;28;20078;-85
2021/03/11 10:42:43;;;;;;;6.43;5.53;;;9.30;99.90;;;;;;4985155;28;20054;-85
2021/03/11 10:45:11;;;;;;;7.07;6.00;;;9.10;99.90;;;;;;4986377;28;20050;-83
2021/03/11 10:47:38;;;;;;;8.07;6.07;;;9.00;99.90;;;;;;4987388;28;20121;-85
2021/03/11 10:50:26;;;;;;;7.70;6.10;;;9.00;99.90;;;;;;4986910;28;20046;-84
2021/03/11 10:52:56;;;;;;;6.75;6.05;;;9.10;99.90;;;;;;4988301;28;20050;-85
2021/03/11 10:55:33;;;;;;;6.57;5.07;;;9.20;99.90;;;;;;4990382;28;20112;-85
2021/03/11 10:58:01;;;;;;;8.93;5.40;;;9.30;99.90;;;;;;4984359;28;20149;-86
2021/03/11 11:00:32;;;;;;;6.80;5.50;;;9.50;99.90;;;;;;4984041;28;20057;-85
2021/03/11 11:03:03;;;;;;;7.10;5.25;;;9.30;99.90;;;;;;5002282;28;20046;-85
2021/03/11 11:05:31;;;;;;;4.78;4.38;;;9.30;99.90;;;;;;4984861;28;20050;-86
2021/03/11 11:07:59;;;;;;;7.32;5.40;;;9.30;99.90;;;;;;4985205;28;20463;-85
2021/03/11 11:10:29;;;;;;;7.35;5.43;;;9.40;99.90;;;;;;4985814;28;20058;-85
2021/03/11 11:12:55;;;;;;;4.95;4.55;;;9.40;99.90;;;;;;4974886;28;20046;-85
2021/03/11 11:15:26;;;;;;;5.63;4.93;;;9.20;99.90;;;;;;4979492;28;20496;-85
2021/03/11 11:17:52;;;;;;;79.90;44.67;;;9.10;99.90;;;;;;4962448;28;20405;-85
2021/03/11 11:20:20;;;;;;;23.33;14.80;;;9.00;99.90;;;;;;4963598;28;20043;-86
2021/03/11 11:22:46;;;;;;;6.65;5.22;;;8.80;99.90;;;;;;4981531;28;20038;-85
2021/03/11 11:25:13;;;;;;;6.20;4.20;;;8.90;99.90;;;;;;4982541;28;20109;-85
2021/03/11 11:27:40;;;;;;;7.88;4.80;;;8.90;99.90;;;;;;4984147;28;20077;-85
2021/03/11 11:30:09;;;;;;;12.27;5.22;;;8.90;99.90;;;;;;4984180;28;20065;-85
2021/03/11 11:32:37;;;;;;;10.90;4.38;;;9.00;99.90;;;;;;5004410;28;20073;-84
2021/03/11 11:35:05;;;;;;;5.80;4.13;;;9.10;99.90;;;;;;5021628;28;20052;-85
2021/03/11 11:37:31;;;;;;;10.20;4.55;;;9.00;99.90;;;;;;5021863;28;20077;-84
2021/03/11 11:39:58;;;;;;;4.95;4.45;;;8.90;99.90;;;;;;5003964;28;20123;-85
2021/03/11 11:42:25;;;;;;;5.63;4.03;;;9.00;99.90;;;;;;5022033;28;20080;-85
2021/03/11 11:44:52;;;;;;;4.35;3.90;;;9.00;99.90;;;;;;5005957;28;20054;-86
2021/03/11 11:47:19;;;;;;;3.75;3.45;;;9.00;99.90;;;;;;5009225;28;20046;-86
2021/03/11 11:49:45;;;;;;;5.32;3.47;;;9.00;99.90;;;;;;5005675;28;20054;-85
2021/03/11 11:52:12;;;;;;;6.57;4.03;;;9.10;99.90;;;;;;5002551;28;20132;-85
2021/03/11 11:54:39;;;;;;;3.88;3.22;;;9.20;99.90;;;;;;5002492;28;20073;-86
2021/03/11 11:57:06;;;;;;;5.47;3.05;;;9.40;99.90;;;;;;5003567;28;20407;-85
2021/03/11 11:59:33;;;;;;;5.80;3.28;;;9.50;99.90;;;;;;5007849;28;20046;-85
2021/03/11 12:02:11;;;;;;;4.38;2.70;;;9.70;99.90;;;;;;5004752;28;20072;-85
2021/03/11 12:04:38;;;;;;;3.50;3.20;;;9.90;99.90;;;;;;5001037;28;20049;-85
2021/03/11 12:07:05;;;;;;;3.15;1.90;;;9.90;99.90;;;;;;5000986;28;20077;-84
2021/03/11 12:09:32;;;;;;;2.45;1.98;;;10.00;99.90;;;;;;5001358;28;20416;-84
2021/03/11 12:11:58;;;;;;;2.28;2.17;;;10.10;99.90;;;;;;5004821;28;20058;-84
2021/03/11 12:14:25;;;;;;;7.32;3.05;;;10.10;99.90;;;;;;5001472;28;20138;-85
2021/03/11 12:16:51;;;;;;;1.55;1.42;;;10.00;99.90;;;;;;5002873;28;20057;-85
2021/03/11 12:19:19;;;;;;;1.80;1.63;;;10.10;99.90;;;;;;5004534;28;20076;-86
2021/03/11 12:21:45;;;;;;;1.30;1.30;;;10.00;99.90;;;;;;5002955;28;20057;-84
2021/03/11 12:24:12;;;;;;;1.55;1.45;;;9.90;99.90;;;;;;5002780;28;20050;-86
2021/03/11 12:26:39;;;;;;;3.33;2.28;;;9.80;99.90;;;;;;5002897;28;20049;-84
2021/03/11 12:29:05;;;;;;;1.85;1.40;;;9.70;99.90;;;;;;5002973;28;20093;-86
2021/03/11 12:31:32;;;;;;;2.42;2.15;;;9.90;99.90;;;;;;5001729;28;20065;-84
2021/03/11 12:34:00;;;;;;;1.40;1.30;;;10.00;99.90;;;;;;5003244;28;20054;-85
2021/03/11 12:36:27;;;;;;;1.80;1.45;;;10.10;99.90;;;;;;5024494;28;20061;-86
2021/03/11 12:38:54;;;;;;;1.45;1.35;;;10.20;99.90;;;;;;5006133;28;20117;-84
2021/03/11 12:41:21;;;;;;;1.00;1.00;;;10.10;99.90;;;;;;5007933;28;20287;-86
2021/03/11 12:43:49;;;;;;;1.27;1.20;;;10.10;99.90;;;;;;5007590;28;20046;-84
2021/03/11 12:46:15;;;;;;;1.25;1.00;;;10.10;99.90;;;;;;5023863;28;20549;-84
2021/03/11 12:48:42;;;;;;;1.42;1.33;;;10.10;99.90;;;;;;5005444;28;20077;-84
2021/03/11 12:51:09;;;;;;;1.50;1.40;;;10.10;99.90;;;;;;5005764;28;20060;-84
2021/03/11 12:53:36;;;;;;;1.38;1.27;;;10.10;99.90;;;;;;5004331;28;20057;-85
2021/03/11 12:56:03;;;;;;;2.65;1.60;;;10.30;99.90;;;;;;5006462;28;20054;-84
2021/03/11 12:58:29;;;;;;;1.30;1.30;;;10.50;99.90;;;;;;5022437;28;20108;-84
2021/03/11 13:00:55;;;;;;;1.10;1.10;;;10.40;99.90;;;;;;5005944;28;20046;-85
2021/03/11 13:03:22;;;;;;;1.00;1.00;;;10.50;99.90;;;;;;5006028;28;20050;-85
2021/03/11 13:05:48;;;;;;;1.30;1.20;;;10.50;99.90;;;;;;5005980;28;20099;-84
2021/03/11 13:08:15;;;;;;;1.08;1.08;;;10.50;99.90;;;;;;5022722;28;20523;-84
2021/03/11 13:10:42;;;;;;;0.95;0.95;;;10.60;99.90;;;;;;5000447;28;20050;-86
2021/03/11 13:13:11;;;;;;;0.90;0.90;;;10.80;99.90;;;;;;5024237;28;20049;-84
2021/03/11 13:15:37;;;;;;;0.75;0.75;;;10.90;99.90;;;;;;5006021;28;20474;-85
2021/03/11 13:18:05;;;;;;;0.93;0.93;;;11.00;99.90;;;;;;5007363;28;20088;-85
2021/03/11 13:20:32;;;;;;;1.70;0.95;;;11.00;99.90;;;;;;5008109;28;20050;-84
2021/03/11 13:22:58;;;;;;;1.08;1.05;;;11.10;99.90;;;;;;5009856;28;20052;-85
2021/03/11 13:25:25;;;;;;;0.80;0.80;;;11.00;99.90;;;;;;5027401;28;20073;-85
2021/03/11 13:27:51;;;;;;;0.77;0.73;;;11.10;99.90;;;;;;5009505;28;20057;-83
2021/03/11 13:30:18;;;;;;;0.60;0.60;;;11.20;99.90;;;;;;5005595;28;20054;-86
2021/03/11 13:32:47;;;;;;;1.40;0.70;;;11.20;99.90;;;;;;5022884;28;20073;-84
2021/03/11 13:35:17;;;;;;;0.52;0.52;;;11.20;99.90;;;;;;5004430;28;20050;-84
2021/03/11 13:37:45;;;;;;;1.02;0.60;;;11.00;99.90;;;;;;5003333;28;20060;-84
2021/03/11 13:40:13;;;;;;;1.40;0.80;;;10.90;99.90;;;;;;5000272;28;20130;-84
2021/03/11 13:42:39;;;;;;;0.57;0.57;;;10.90;99.90;;;;;;5002259;28;20132;-85
2021/03/11 13:45:07;;;;;;;0.60;0.60;;;10.90;99.90;;;;;;4998899;28;20042;-86
2021/03/11 13:47:34;;;;;;;2.65;1.17;;;10.80;99.90;;;;;;5005802;28;20042;-85
2021/03/11 13:50:02;;;;;;;0.70;0.70;;;10.80;99.90;;;;;;5004648;28;20057;-85
2021/03/11 13:52:28;;;;;;;0.75;0.70;;;10.60;99.90;;;;;;5003815;28;20061;-84